createdAt,value
2022-08-12T00:00:14.120Z,20.60
2022-08-12T00:07:28.476Z,20.60
2022-08-12T00:10:16.874Z,20.60
2022-08-12T00:16:20.363Z,20.70
2022-08-12T00:19:13.016Z,20.70
2022-08-12T00:22:00.326Z,20.70
2022-08-12T00:24:48.514Z,20.60
2022-08-12T00:27:43.426Z,20.70
2022-08-12T00:30:35.511Z,20.70
2022-08-12T00:37:57.955Z,20.70
2022-08-12T00:40:50.963Z,20.50
2022-08-12T00:47:29.347Z,20.50
2022-08-12T00:50:00.597Z,20.50
2022-08-12T00:52:59.067Z,20.50
2022-08-12T00:55:33.339Z,20.50
2022-08-12T00:58:11.672Z,20.40
2022-08-12T01:04:56.030Z,20.40
2022-08-12T01:08:12.507Z,20.40
2022-08-12T01:11:29.192Z,20.30
2022-08-12T01:14:05.182Z,20.30
2022-08-12T01:19:28.727Z,20.20
2022-08-12T01:22:31.561Z,20.20
2022-08-12T01:25:07.851Z,20.20
2022-08-12T01:27:41.658Z,20.10
2022-08-12T01:30:13.378Z,20.20
2022-08-12T01:32:47.669Z,20.20
2022-08-12T01:35:18.910Z,20.20
2022-08-12T01:37:53.436Z,20.10
2022-08-12T01:40:34.535Z,20.10
2022-08-12T01:43:09.603Z,20.10
2022-08-12T01:45:49.515Z,20.10
2022-08-12T01:48:25.604Z,20.00
2022-08-12T01:51:07.824Z,20.00
2022-08-12T01:53:50.682Z,20.10
2022-08-12T01:56:25.981Z,20.10
2022-08-12T02:02:35.152Z,20.10
2022-08-12T02:05:36.343Z,20.10
2022-08-12T02:08:44.560Z,20.20
2022-08-12T02:11:23.639Z,20.20
2022-08-12T02:14:35.934Z,20.20
2022-08-12T02:20:52.403Z,20.20
2022-08-12T02:23:45.840Z,20.20
2022-08-12T02:26:16.470Z,20.20
2022-08-12T02:28:49.957Z,20.20
2022-08-12T02:31:20.733Z,20.20
2022-08-12T02:33:49.695Z,20.20
2022-08-12T02:36:18.261Z,20.20
2022-08-12T02:38:53.127Z,20.10
2022-08-12T02:41:27.627Z,20.20
2022-08-12T02:44:02.123Z,20.10
2022-08-12T02:46:35.701Z,20.10
2022-08-12T02:49:12.541Z,20.20
2022-08-12T02:51:44.550Z,20.10
2022-08-12T02:54:13.895Z,20.10
2022-08-12T02:56:50.684Z,20.10
2022-08-12T02:59:22.644Z,20.10
2022-08-12T03:01:56.003Z,20.20
2022-08-12T03:04:34.387Z,20.20
2022-08-12T03:07:14.495Z,20.20
2022-08-12T03:10:03.556Z,20.20
2022-08-12T03:12:48.751Z,20.20
2022-08-12T03:15:22.497Z,20.20
2022-08-12T03:18:25.725Z,20.20
2022-08-12T03:20:55.256Z,20.10
2022-08-12T03:23:29.970Z,20.20
2022-08-12T03:26:05.687Z,20.10
2022-08-12T03:28:54.300Z,20.10
2022-08-12T03:31:30.071Z,20.10
2022-08-12T03:34:03.230Z,20.10
2022-08-12T03:36:36.582Z,20.10
2022-08-12T03:39:36.057Z,20.10
2022-08-12T03:42:17.108Z,20.10
2022-08-12T03:45:16.399Z,20.10
2022-08-12T03:48:11.185Z,20.10
2022-08-12T03:51:01.704Z,20.10
2022-08-12T03:53:50.411Z,20.10
2022-08-12T03:56:39.602Z,20.10
2022-08-12T03:59:27.161Z,20.10
2022-08-12T04:02:00.834Z,20.10
2022-08-12T04:04:34.827Z,20.10
2022-08-12T04:07:08.604Z,20.10
2022-08-12T04:09:38.670Z,20.10
2022-08-12T04:12:26.615Z,20.10
2022-08-12T04:14:57.029Z,20.10
2022-08-12T04:17:28.986Z,20.10
2022-08-12T04:19:57.924Z,20.20
2022-08-12T04:22:33.094Z,20.20
2022-08-12T04:25:02.421Z,20.20
2022-08-12T04:27:32.729Z,20.20
2022-08-12T04:30:21.085Z,20.20
2022-08-12T04:32:50.843Z,20.20
2022-08-12T04:35:19.542Z,20.20
2022-08-12T04:37:59.335Z,20.20
2022-08-12T04:40:36.494Z,20.20
2022-08-12T04:43:05.552Z,20.20
2022-08-12T04:45:37.603Z,20.30
2022-08-12T04:48:08.841Z,20.30
2022-08-12T04:50:40.802Z,20.30
2022-08-12T04:53:10.923Z,20.30
2022-08-12T04:55:40.736Z,20.40
2022-08-12T04:58:09.385Z,20.40
2022-08-12T05:00:42.214Z,20.50
2022-08-12T05:03:10.738Z,20.50
2022-08-12T05:05:40.829Z,20.60
2022-08-12T05:08:15.885Z,20.60
2022-08-12T05:10:46.357Z,20.60
2022-08-12T05:13:17.975Z,20.70
2022-08-12T05:16:03.818Z,20.70
2022-08-12T05:18:39.284Z,20.70
2022-08-12T05:21:09.651Z,20.80
2022-08-12T05:23:40.883Z,20.70
2022-08-12T05:26:09.378Z,20.70
2022-08-12T05:28:38.725Z,20.70
2022-08-12T05:31:07.031Z,20.70
2022-08-12T05:33:42.048Z,20.80
2022-08-12T05:36:13.925Z,20.90
2022-08-12T05:38:58.066Z,20.90
2022-08-12T05:41:27.707Z,21.00
2022-08-12T05:44:00.375Z,21.00
2022-08-12T05:46:29.843Z,21.10
2022-08-12T05:49:02.836Z,21.20
2022-08-12T05:51:40.739Z,21.30
2022-08-12T05:54:16.435Z,21.30
2022-08-12T05:56:45.625Z,21.30
2022-08-12T05:59:14.770Z,21.30
2022-08-12T06:02:09.720Z,21.30
2022-08-12T06:04:35.791Z,21.30
2022-08-12T06:07:59.559Z,21.30
2022-08-12T06:10:31.648Z,21.30
2022-08-12T06:13:02.608Z,21.30
2022-08-12T06:15:42.406Z,21.40
2022-08-12T06:18:16.334Z,21.40
2022-08-12T06:20:49.577Z,21.40
2022-08-12T06:23:22.468Z,21.50
2022-08-12T06:25:52.692Z,21.50
2022-08-12T06:28:24.090Z,21.50
2022-08-12T06:31:22.707Z,21.50
2022-08-12T06:33:56.123Z,21.60
2022-08-12T06:36:33.901Z,21.50
2022-08-12T06:39:02.812Z,21.60
2022-08-12T06:42:10.843Z,21.60
2022-08-12T06:44:40.360Z,21.60
2022-08-12T06:47:08.424Z,21.70
2022-08-12T06:49:40.122Z,21.80
2022-08-12T06:52:12.432Z,21.80
2022-08-12T06:54:46.576Z,21.90
2022-08-12T06:58:08.247Z,21.90
2022-08-12T07:00:08.608Z,22.00
2022-08-12T07:02:37.406Z,22.00
2022-08-12T07:05:06.812Z,22.00
2022-08-12T07:07:38.963Z,22.10
2022-08-12T07:10:12.282Z,22.10
2022-08-12T07:12:43.141Z,22.10
2022-08-12T07:15:11.943Z,22.20
2022-08-12T07:17:42.797Z,22.20
2022-08-12T07:20:35.751Z,22.30
2022-08-12T07:23:02.897Z,22.30
2022-08-12T07:25:40.642Z,22.40
2022-08-12T07:28:16.270Z,22.40
2022-08-12T07:30:46.820Z,22.50
2022-08-12T07:33:16.947Z,22.50
2022-08-12T07:35:48.151Z,22.50
2022-08-12T07:38:28.963Z,22.60
2022-08-12T07:41:02.761Z,22.60
2022-08-12T07:43:33.851Z,22.60
2022-08-12T07:46:03.303Z,22.70
2022-08-12T07:48:40.731Z,22.70
2022-08-12T07:51:10.198Z,22.70
2022-08-12T07:53:48.615Z,22.80
2022-08-12T07:56:29.737Z,22.90
2022-08-12T07:59:01.179Z,23.00
2022-08-12T08:01:29.723Z,23.00
2022-08-12T08:04:22.106Z,23.00
2022-08-12T08:06:51.740Z,23.00
2022-08-12T08:09:22.828Z,23.10
2022-08-12T08:12:08.732Z,23.20
2022-08-12T08:14:40.623Z,23.30
2022-08-12T08:17:11.726Z,23.40
2022-08-12T08:20:02.125Z,23.60
2022-08-12T08:22:41.772Z,23.60
2022-08-12T08:25:36.403Z,23.70
2022-08-12T08:28:05.857Z,23.70
2022-08-12T08:30:38.769Z,23.80
2022-08-12T08:33:23.536Z,23.90
2022-08-12T08:36:02.968Z,24.00
2022-08-12T08:38:35.216Z,24.00
2022-08-12T08:42:19.111Z,24.10
2022-08-12T08:44:12.100Z,24.10
2022-08-12T08:46:43.748Z,24.20
2022-08-12T08:49:15.716Z,24.20
2022-08-12T08:51:45.781Z,24.20
2022-08-12T08:54:14.906Z,24.30
2022-08-12T08:56:44.173Z,24.30
2022-08-12T08:59:13.879Z,24.40
2022-08-12T09:01:44.919Z,24.40
2022-08-12T09:05:08.475Z,24.40
2022-08-12T09:07:17.130Z,24.50
2022-08-12T09:10:02.614Z,24.60
2022-08-12T09:13:06.341Z,24.60
2022-08-12T09:15:36.292Z,24.60
2022-08-12T09:18:11.092Z,24.50
2022-08-12T09:20:42.518Z,24.50
2022-08-12T09:23:59.322Z,24.50
2022-08-12T09:26:08.232Z,24.60
2022-08-12T09:28:38.010Z,24.60
2022-08-12T09:32:02.898Z,24.60
2022-08-12T09:34:25.634Z,24.60
2022-08-12T09:37:00.358Z,24.60
2022-08-12T09:40:02.487Z,24.70
2022-08-12T09:42:43.630Z,24.70
2022-08-12T09:46:05.283Z,24.70
2022-08-12T09:48:20.427Z,24.80
2022-08-12T09:50:55.669Z,24.80
2022-08-12T09:53:36.117Z,24.80
2022-08-12T09:56:56.854Z,24.70
2022-08-12T09:59:01.343Z,24.70
2022-08-12T10:01:34.498Z,24.70
2022-08-12T10:04:20.607Z,24.70
2022-08-12T10:06:55.013Z,24.70
2022-08-12T10:09:57.137Z,24.80
2022-08-12T10:12:34.659Z,24.90
2022-08-12T10:15:04.947Z,24.90
2022-08-12T10:17:34.464Z,24.90
2022-08-12T10:20:30.310Z,25.00
2022-08-12T10:23:03.940Z,25.00
2022-08-12T10:26:35.211Z,25.10
2022-08-12T10:29:02.655Z,25.20
2022-08-12T10:31:47.040Z,25.30
2022-08-12T10:34:53.466Z,25.40
2022-08-12T10:38:34.469Z,25.50
2022-08-12T10:40:28.502Z,25.60
2022-08-12T10:43:17.764Z,25.70
2022-08-12T10:45:50.907Z,25.80
2022-08-12T10:48:33.561Z,25.70
2022-08-12T10:51:56.538Z,25.60
2022-08-12T10:54:00.787Z,25.60
2022-08-12T10:56:34.535Z,25.60
2022-08-12T10:59:11.200Z,25.60
2022-08-12T11:04:31.566Z,25.60
2022-08-12T11:04:44.761Z,25.60
2022-08-12T11:08:37.714Z,25.70
2022-08-12T11:10:06.957Z,25.60
2022-08-12T11:12:59.740Z,25.60
2022-08-12T11:15:33.554Z,25.60
2022-08-12T11:18:27.648Z,25.70
2022-08-12T11:20:57.998Z,25.70
2022-08-12T11:23:36.194Z,25.70
2022-08-12T11:26:07.775Z,25.70
2022-08-12T11:28:43.288Z,25.80
2022-08-12T11:31:27.901Z,25.80
2022-08-12T11:34:51.484Z,25.80
2022-08-12T11:37:04.956Z,25.80
2022-08-12T11:42:25.854Z,25.80
2022-08-12T11:45:02.989Z,25.80
2022-08-12T11:47:31.845Z,25.90
2022-08-12T11:50:01.311Z,26.00
2022-08-12T11:52:55.855Z,26.10
2022-08-12T11:55:23.253Z,26.20
2022-08-12T11:58:51.171Z,26.30
2022-08-12T12:03:43.643Z,26.50
2022-08-12T12:06:17.147Z,26.60
2022-08-12T12:08:51.016Z,26.60
2022-08-12T12:11:20.884Z,26.70
2022-08-12T12:14:08.401Z,26.70
2022-08-12T12:16:48.266Z,26.80
2022-08-12T12:19:19.293Z,26.90
2022-08-12T12:21:49.565Z,27.10
2022-08-12T12:24:21.053Z,27.20
2022-08-12T12:26:59.707Z,27.30
2022-08-12T12:30:17.771Z,27.30
2022-08-12T12:32:31.048Z,27.30
2022-08-12T12:35:23.437Z,27.20
2022-08-12T12:38:04.040Z,27.10
2022-08-12T12:40:35.352Z,27.10
2022-08-12T12:43:09.280Z,27.10
2022-08-12T12:45:44.420Z,27.10
2022-08-12T12:48:21.911Z,27.10
2022-08-12T12:51:48.907Z,27.10
2022-08-12T12:54:07.949Z,27.10
2022-08-12T12:56:42.708Z,27.00
2022-08-12T12:59:55.475Z,27.00
2022-08-12T13:02:07.814Z,26.90
2022-08-12T13:04:39.094Z,26.70
2022-08-12T13:07:08.097Z,26.70
2022-08-12T13:09:37.953Z,26.60
2022-08-12T13:12:10.971Z,26.60
2022-08-12T13:14:39.570Z,26.40
2022-08-12T13:17:14.922Z,26.30
2022-08-12T13:19:49.984Z,26.30
2022-08-12T13:22:23.519Z,26.30
2022-08-12T13:24:56.148Z,26.40
2022-08-12T13:27:34.729Z,26.60
2022-08-12T13:30:12.512Z,26.90
2022-08-12T13:32:56.579Z,27.50
2022-08-12T13:35:33.242Z,28.00
2022-08-12T13:38:03.367Z,28.50
2022-08-12T13:40:34.581Z,28.70
2022-08-12T13:43:06.343Z,28.60
2022-08-12T13:45:36.809Z,28.60
2022-08-12T13:48:07.127Z,28.50
2022-08-12T13:50:40.358Z,28.60
2022-08-12T13:53:24.873Z,28.80
2022-08-12T13:56:03.248Z,29.00
2022-08-12T13:58:37.402Z,29.10
2022-08-12T14:01:08.848Z,28.90
2022-08-12T14:03:51.004Z,28.70
2022-08-12T14:06:26.030Z,28.40
2022-08-12T14:09:15.619Z,28.20
2022-08-12T14:11:58.918Z,28.00
2022-08-12T14:14:31.581Z,27.70
2022-08-12T14:17:10.294Z,27.50
2022-08-12T14:20:01.851Z,27.40
2022-08-12T14:22:35.012Z,27.50
2022-08-12T14:25:10.940Z,27.50
2022-08-12T14:28:03.683Z,27.60
2022-08-12T14:30:35.457Z,28.00
2022-08-12T14:33:10.948Z,28.60
2022-08-12T14:35:46.048Z,29.10
2022-08-12T14:38:26.077Z,29.70
2022-08-12T14:40:58.159Z,30.40
2022-08-12T14:43:31.742Z,30.70
2022-08-12T14:46:15.595Z,30.70
2022-08-12T14:48:46.321Z,30.70
2022-08-12T14:53:26.161Z,30.70
2022-08-12T14:57:19.181Z,30.40
2022-08-12T15:00:03.746Z,30.10
2022-08-12T15:02:33.612Z,30.00
2022-08-12T15:05:03.460Z,29.90
2022-08-12T15:07:43.605Z,29.80
2022-08-12T15:10:25.028Z,29.90
2022-08-12T15:13:06.789Z,29.90
2022-08-12T15:15:43.730Z,30.00
2022-08-12T15:18:15.985Z,30.00
2022-08-12T15:20:52.091Z,30.20
2022-08-12T15:23:23.725Z,30.40
2022-08-12T15:26:02.370Z,30.60
2022-08-12T15:28:33.212Z,30.90
2022-08-12T15:31:02.417Z,31.30
2022-08-12T15:33:45.070Z,31.60
2022-08-12T15:36:19.417Z,31.60
2022-08-12T15:39:05.264Z,31.40
2022-08-12T15:41:49.261Z,31.00
2022-08-12T15:44:38.489Z,30.70
2022-08-12T15:47:11.008Z,30.30
2022-08-12T15:49:43.024Z,29.90
2022-08-12T15:52:28.129Z,29.60
2022-08-12T15:54:58.833Z,29.20
2022-08-12T15:57:33.330Z,28.90
2022-08-12T16:00:07.598Z,28.60
2022-08-12T16:02:52.056Z,28.30
2022-08-12T16:06:12.449Z,28.20
2022-08-12T16:08:18.317Z,27.90
2022-08-12T16:10:53.800Z,27.70
2022-08-12T16:13:25.117Z,27.60
2022-08-12T16:16:03.907Z,27.40
2022-08-12T16:18:37.289Z,27.30
2022-08-12T16:21:07.375Z,27.20
2022-08-12T16:23:52.022Z,26.90
2022-08-12T16:26:32.386Z,26.70
2022-08-12T16:29:15.188Z,26.20
2022-08-12T16:31:46.791Z,25.70
2022-08-12T16:34:39.887Z,25.40
2022-08-12T16:37:14.585Z,25.10
2022-08-12T16:40:01.819Z,24.80
2022-08-12T16:42:34.015Z,24.70
2022-08-12T16:45:03.701Z,24.50
2022-08-12T16:47:57.653Z,24.30
2022-08-12T16:50:31.059Z,24.10
2022-08-12T16:53:02.122Z,24.00
2022-08-12T16:55:42.459Z,23.90
2022-08-12T16:58:18.729Z,23.80
2022-08-12T17:01:02.007Z,23.70
2022-08-12T17:03:36.807Z,23.50
2022-08-12T17:06:06.519Z,23.50
2022-08-12T17:08:35.292Z,23.40
2022-08-12T17:11:08.400Z,23.30
2022-08-12T17:13:36.678Z,23.20
2022-08-12T17:16:24.068Z,23.30
2022-08-12T17:18:59.704Z,23.30
2022-08-12T17:21:40.639Z,23.30
2022-08-12T17:24:30.456Z,23.20
2022-08-12T17:27:00.249Z,23.20
2022-08-12T17:30:03.200Z,23.10
2022-08-12T17:32:28.300Z,23.10
2022-08-12T17:35:17.420Z,23.10
2022-08-12T17:37:50.871Z,23.10
2022-08-12T17:40:35.886Z,23.00
2022-08-12T17:43:56.902Z,23.00
2022-08-12T17:45:59.883Z,22.90
2022-08-12T17:48:38.421Z,22.90
2022-08-12T17:51:15.653Z,22.60
2022-08-12T17:54:11.203Z,22.60
2022-08-12T17:56:39.455Z,22.50
2022-08-12T17:59:12.631Z,22.50
2022-08-12T18:01:46.393Z,22.40
2022-08-12T18:04:21.328Z,22.40
2022-08-12T18:06:55.756Z,22.40
2022-08-12T18:09:32.253Z,22.30
2022-08-12T18:12:24.528Z,22.30
2022-08-12T18:15:09.103Z,22.30
2022-08-12T18:17:39.667Z,22.20
2022-08-12T18:20:17.487Z,22.10
2022-08-12T18:22:47.469Z,22.00
2022-08-12T18:26:12.978Z,21.90
2022-08-12T18:28:30.721Z,21.90
2022-08-12T18:31:03.061Z,22.00
2022-08-12T18:33:43.974Z,21.90
2022-08-12T18:36:22.382Z,21.80
2022-08-12T18:38:56.279Z,21.80
2022-08-12T18:41:33.710Z,21.90
2022-08-12T18:44:08.127Z,21.90
2022-08-12T18:46:53.689Z,21.90
2022-08-12T18:49:38.721Z,22.00
2022-08-12T18:52:12.015Z,22.00
2022-08-12T18:54:48.704Z,22.00
2022-08-12T18:58:06.151Z,21.90
2022-08-12T19:00:21.557Z,22.00
2022-08-12T19:02:54.389Z,22.00
2022-08-12T19:05:53.112Z,22.00
2022-08-12T19:08:15.063Z,22.00
2022-08-12T19:10:50.405Z,22.00
2022-08-12T19:13:39.669Z,22.00
2022-08-12T19:16:11.556Z,22.00
2022-08-12T19:18:49.304Z,22.00
2022-08-12T19:21:20.076Z,22.00
2022-08-12T19:24:09.463Z,22.00
2022-08-12T19:26:38.638Z,22.00
2022-08-12T19:29:08.496Z,22.00
2022-08-12T19:31:56.690Z,22.00
2022-08-12T19:37:26.822Z,22.00
2022-08-12T19:40:09.071Z,22.10
2022-08-12T19:43:00.864Z,22.10
2022-08-12T19:45:43.841Z,22.10
2022-08-12T19:48:19.422Z,22.10
2022-08-12T19:50:52.783Z,22.10
2022-08-12T19:53:22.556Z,22.10
2022-08-12T19:55:54.088Z,22.10
2022-08-12T19:58:23.518Z,22.00
2022-08-12T20:00:53.362Z,22.00
2022-08-12T20:03:38.664Z,22.00
2022-08-12T20:06:15.764Z,22.00
2022-08-12T20:08:48.905Z,22.10
2022-08-12T20:12:12.405Z,22.00
2022-08-12T20:14:17.975Z,22.00
2022-08-12T20:16:57.555Z,22.00
2022-08-12T20:20:01.450Z,22.00
2022-08-12T20:22:29.779Z,22.00
2022-08-12T20:25:12.657Z,22.00
2022-08-12T20:28:04.500Z,22.00
2022-08-12T20:30:53.618Z,21.90
2022-08-12T20:33:32.696Z,21.90
2022-08-12T20:36:43.121Z,21.90
2022-08-12T20:39:17.425Z,21.90
2022-08-12T20:42:07.625Z,21.90
2022-08-12T20:44:39.794Z,21.90
2022-08-12T20:47:19.924Z,21.90
2022-08-12T20:49:55.874Z,21.90
2022-08-12T20:52:30.530Z,21.90
2022-08-12T20:55:15.296Z,21.90
2022-08-12T20:58:02.218Z,21.90
2022-08-12T21:00:35.371Z,21.80
2022-08-12T21:03:18.108Z,21.80
2022-08-12T21:06:12.319Z,21.80
2022-08-12T21:08:43.807Z,21.80
2022-08-12T21:11:13.418Z,21.70
2022-08-12T21:13:42.445Z,21.70
2022-08-12T21:16:12.222Z,21.70
2022-08-12T21:18:50.492Z,21.70
2022-08-12T21:21:24.257Z,21.70
2022-08-12T21:24:11.458Z,21.70
2022-08-12T21:26:42.394Z,21.60
2022-08-12T21:29:22.440Z,21.60
2022-08-12T21:32:47.389Z,21.60
2022-08-12T21:34:41.459Z,21.50
2022-08-12T21:37:26.601Z,21.60
2022-08-12T21:39:56.830Z,21.50
2022-08-12T21:42:28.023Z,21.50
2022-08-12T21:45:46.134Z,21.40
2022-08-12T21:48:06.501Z,21.50
2022-08-12T21:50:38.527Z,21.40
2022-08-12T21:53:10.402Z,21.40
2022-08-12T21:55:39.600Z,21.40
2022-08-12T21:58:11.400Z,21.40
2022-08-12T22:00:40.172Z,21.40
2022-08-12T22:04:01.449Z,21.40
2022-08-12T22:06:26.143Z,21.40
2022-08-12T22:09:02.626Z,21.50
2022-08-12T22:11:41.552Z,21.50
2022-08-12T22:14:21.603Z,21.50
2022-08-12T22:16:56.718Z,21.40
2022-08-12T22:19:27.423Z,21.40
2022-08-12T22:21:58.529Z,21.40
2022-08-12T22:24:30.401Z,21.40
2022-08-12T22:27:14.637Z,21.40
2022-08-12T22:30:15.895Z,21.40
2022-08-12T22:32:49.816Z,21.50
2022-08-12T22:35:55.237Z,21.50
2022-08-12T22:38:23.769Z,21.50
2022-08-12T22:40:55.348Z,21.40
2022-08-12T22:43:58.755Z,21.40
2022-08-12T22:46:52.042Z,21.50
2022-08-12T22:49:22.734Z,21.40
2022-08-12T22:52:12.335Z,21.40
2022-08-12T22:54:59.997Z,21.40
2022-08-12T22:57:53.409Z,21.40
2022-08-12T23:00:27.044Z,21.40
2022-08-12T23:02:56.611Z,21.30
2022-08-12T23:05:36.785Z,21.30
2022-08-12T23:08:30.013Z,21.30
2022-08-12T23:11:05.878Z,21.30
2022-08-12T23:13:54.893Z,21.30
2022-08-12T23:16:30.825Z,21.30
2022-08-12T23:19:09.609Z,21.20
2022-08-12T23:22:05.173Z,21.20
2022-08-12T23:24:56.038Z,21.20
2022-08-12T23:27:51.213Z,21.20
2022-08-12T23:30:31.676Z,21.20
2022-08-12T23:33:13.460Z,21.10
2022-08-12T23:35:58.862Z,21.10
2022-08-12T23:38:34.585Z,21.10
2022-08-12T23:41:06.713Z,21.10
2022-08-12T23:43:38.505Z,21.10
2022-08-12T23:46:11.411Z,21.00
2022-08-12T23:48:40.860Z,21.10
2022-08-12T23:51:23.454Z,21.00
2022-08-12T23:54:00.292Z,21.00
2022-08-12T23:56:33.123Z,21.00
2022-08-12T23:59:03.723Z,21.00
